Time;durP1;ratioP1;P1;durP2;ratioP2;P2;SDS_P1;SDS_P2;PMS_P1;PMS_P2;Temp;Humidity;BMP_temperature;BMP_pressure;BME280_temperature;BME280_humidity;BME280_pressure;Samples;Min_cycle;Max_cycle;Signal;HPM_P1;HPM_P2
2024/01/20 00:00:14;;;;;;;21.85;15.93;;;2.70;99.90;;;;;;5102467;28;20039;-49
2024/01/20 00:02:40;;;;;;;29.38;16.65;;;2.60;99.90;;;;;;5032082;28;20043;-46
2024/01/20 00:05:06;;;;;;;21.92;15.52;;;2.70;99.90;;;;;;5083490;28;20042;-47
2024/01/20 00:07:32;;;;;;;19.23;12.65;;;2.80;99.90;;;;;;5073593;28;20414;-47
2024/01/20 00:09:58;;;;;;;19.20;13.80;;;2.70;99.90;;;;;;5103187;28;20510;-47
2024/01/20 00:12:24;;;;;;;18.85;14.68;;;2.70;99.90;;;;;;5101461;28;20028;-46
2024/01/20 00:14:49;;;;;;;21.77;14.88;;;2.70;99.90;;;;;;5102128;28;20019;-47
2024/01/20 00:17:15;;;;;;;21.52;15.10;;;2.80;99.90;;;;;;5103073;28;20047;-49
2024/01/20 00:19:41;;;;;;;22.25;14.68;;;2.70;99.90;;;;;;5103853;28;20033;-49
2024/01/20 00:22:07;;;;;;;23.55;15.30;;;2.70;99.90;;;;;;5102498;28;20031;-50
2024/01/20 00:24:33;;;;;;;21.10;15.55;;;2.70;99.90;;;;;;5102646;28;20102;-50
2024/01/20 00:26:58;;;;;;;21.95;14.00;;;2.70;99.90;;;;;;5098907;28;20429;-50
2024/01/20 00:29:24;;;;;;;21.92;14.90;;;2.60;99.90;;;;;;5092208;28;20036;-48
2024/01/20 00:31:50;;;;;;;21.02;14.48;;;2.60;99.90;;;;;;5091253;28;20085;-50
2024/01/20 00:34:15;;;;;;;21.55;13.55;;;2.70;99.90;;;;;;5092272;28;20053;-47
2024/01/20 00:36:41;;;;;;;21.52;14.60;;;2.70;99.90;;;;;;5091855;28;20531;-49
2024/01/20 00:39:07;;;;;;;22.13;14.23;;;2.70;99.90;;;;;;5092395;28;20036;-48
2024/01/20 00:41:33;;;;;;;19.83;12.35;;;2.70;99.90;;;;;;5092209;28;20040;-49
2024/01/20 00:43:59;;;;;;;20.83;12.52;;;2.60;99.90;;;;;;5092185;28;20487;-47
2024/01/20 00:46:25;;;;;;;19.33;13.13;;;2.70;99.90;;;;;;5092028;28;20081;-50
2024/01/20 00:48:50;;;;;;;19.55;13.70;;;2.70;99.90;;;;;;5092044;28;20116;-49
2024/01/20 00:51:16;;;;;;;20.23;13.95;;;2.60;99.90;;;;;;5092145;28;20059;-50
2024/01/20 00:53:42;;;;;;;17.90;11.82;;;2.40;99.90;;;;;;5091929;28;20036;-47
2024/01/20 00:56:07;;;;;;;19.20;12.77;;;2.40;99.90;;;;;;5092290;28;20044;-47
2024/01/20 00:58:33;;;;;;;16.17;11.77;;;2.30;99.90;;;;;;5092030;28;20036;-50
2024/01/20 01:00:59;;;;;;;19.15;13.50;;;2.30;99.90;;;;;;5072975;28;20391;-48
2024/01/20 01:03:25;;;;;;;20.63;12.20;;;2.30;99.90;;;;;;5092048;28;20482;-47
2024/01/20 01:05:51;;;;;;;17.20;12.40;;;2.30;99.90;;;;;;5091749;28;20056;-51
2024/01/20 01:08:16;;;;;;;16.98;12.82;;;2.30;99.90;;;;;;5091826;28;20047;-46
2024/01/20 01:10:42;;;;;;;17.15;12.35;;;2.20;99.90;;;;;;5072474;28;20054;-48
2024/01/20 01:13:08;;;;;;;19.30;13.65;;;2.30;99.90;;;;;;5028731;28;20049;-48
2024/01/20 01:15:33;;;;;;;18.73;12.20;;;2.30;99.90;;;;;;5029151;28;20045;-49
2024/01/20 01:17:59;;;;;;;19.48;13.07;;;2.30;99.90;;;;;;5029150;28;20041;-48
2024/01/20 01:20:25;;;;;;;19.50;12.98;;;2.30;99.90;;;;;;5012691;28;20072;-47
2024/01/20 01:22:51;;;;;;;21.60;14.20;;;2.20;99.90;;;;;;5029105;28;20058;-46
2024/01/20 01:25:17;;;;;;;20.33;13.02;;;2.30;99.90;;;;;;5029051;28;20112;-48
2024/01/20 01:27:42;;;;;;;21.30;14.38;;;2.30;99.90;;;;;;5029151;28;20128;-50
2024/01/20 01:30:09;;;;;;;20.15;13.80;;;2.40;99.90;;;;;;5029064;28;20141;-50
2024/01/20 01:32:35;;;;;;;19.90;12.65;;;2.30;99.90;;;;;;5029060;28;20041;-49
2024/01/20 01:35:00;;;;;;;11.50;7.05;;;2.30;99.90;;;;;;5028917;28;20056;-48
2024/01/20 01:37:27;;;;;;;19.58;14.85;;;2.10;99.90;;;;;;5012465;28;20591;-50
2024/01/20 01:39:52;;;;;;;22.63;15.50;;;2.20;99.90;;;;;;5029038;28;20041;-48
2024/01/20 01:42:18;;;;;;;24.50;14.35;;;2.10;99.90;;;;;;5028823;28;20056;-48
2024/01/20 01:44:44;;;;;;;21.50;12.52;;;2.10;99.90;;;;;;5060590;28;20089;-50
2024/01/20 01:47:10;;;;;;;25.40;19.02;;;2.00;99.90;;;;;;5095804;28;20031;-49
2024/01/20 01:49:36;;;;;;;22.05;14.50;;;2.10;99.90;;;;;;5095400;28;20024;-47
2024/01/20 01:52:02;;;;;;;23.38;14.48;;;2.10;99.90;;;;;;5095456;28;20031;-50
2024/01/20 01:54:28;;;;;;;22.88;14.93;;;1.90;99.90;;;;;;5095274;28;20075;-48
2024/01/20 01:56:56;;;;;;;19.77;13.05;;;1.90;99.90;;;;;;5095235;28;20020;-49
2024/01/20 01:59:23;;;;;;;18.95;12.52;;;2.00;99.90;;;;;;5095282;28;20138;-47
2024/01/20 02:01:49;;;;;;;23.00;13.27;;;2.10;99.90;;;;;;5095357;28;20024;-50
2024/01/20 02:04:14;;;;;;;23.80;13.63;;;2.10;99.90;;;;;;5095060;28;20047;-50
2024/01/20 02:06:41;;;;;;;16.27;11.93;;;2.20;99.90;;;;;;5076155;28;20032;-49
2024/01/20 02:09:08;;;;;;;24.55;13.95;;;2.10;99.90;;;;;;5114886;28;20676;-50
2024/01/20 02:11:34;;;;;;;21.80;13.05;;;2.30;99.90;;;;;;5115456;28;20114;-47
2024/01/20 02:14:01;;;;;;;19.48;12.73;;;2.30;99.90;;;;;;5078182;28;20475;-48
2024/01/20 02:16:26;;;;;;;17.77;11.55;;;2.40;99.90;;;;;;5115238;28;20026;-47
2024/01/20 02:18:52;;;;;;;18.65;12.63;;;2.20;99.90;;;;;;5115100;28;20453;-46
2024/01/20 02:21:18;;;;;;;17.05;12.43;;;2.00;99.90;;;;;;5115345;28;20043;-49
2024/01/20 02:23:48;;;;;;;18.77;12.50;;;2.10;99.90;;;;;;5114941;28;20070;-49
2024/01/20 02:26:13;;;;;;;20.02;12.73;;;2.20;99.90;;;;;;5115395;28;20425;-48
2024/01/20 02:28:39;;;;;;;18.60;11.35;;;2.20;99.90;;;;;;5114845;28;20023;-48
2024/01/20 02:31:05;;;;;;;21.02;13.25;;;2.20;99.90;;;;;;5115107;28;20055;-48
2024/01/20 02:33:30;;;;;;;17.92;11.18;;;2.10;99.90;;;;;;5114792;28;20069;-47
2024/01/20 02:35:56;;;;;;;23.77;14.65;;;2.10;99.90;;;;;;5114599;28;20043;-50
2024/01/20 02:38:22;;;;;;;11.35;7.20;;;2.10;99.90;;;;;;5114673;28;20054;-50
2024/01/20 02:40:47;;;;;;;16.20;11.32;;;2.10;99.90;;;;;;5114929;28;20098;-47
2024/01/20 02:43:13;;;;;;;17.65;12.18;;;2.00;99.90;;;;;;5061764;28;20433;-50
2024/01/20 02:45:39;;;;;;;14.48;9.70;;;2.10;99.90;;;;;;5114548;28;20098;-48
2024/01/20 02:48:05;;;;;;;17.83;11.07;;;2.10;99.90;;;;;;5114619;28;20069;-50
2024/01/20 02:50:31;;;;;;;20.05;12.45;;;2.10;99.90;;;;;;5114740;28;20042;-49
2024/01/20 02:52:57;;;;;;;20.67;12.30;;;2.20;99.90;;;;;;5114532;28;20019;-49
2024/01/20 02:55:22;;;;;;;16.55;11.65;;;2.20;99.90;;;;;;5077157;28;20035;-50
2024/01/20 02:57:48;;;;;;;15.75;9.02;;;2.20;99.90;;;;;;5114257;28;20058;-50
2024/01/20 03:00:14;;;;;;;20.23;11.30;;;2.20;99.90;;;;;;5114547;28;20030;-47
2024/01/20 03:02:40;;;;;;;14.18;8.75;;;2.30;99.90;;;;;;5061503;28;20487;-48
2024/01/20 03:05:06;;;;;;;13.73;8.60;;;2.00;99.90;;;;;;5114332;28;20132;-49
2024/01/20 03:07:31;;;;;;;16.50;10.60;;;1.80;99.90;;;;;;5061760;28;20547;-47
2024/01/20 03:09:57;;;;;;;15.95;11.02;;;1.70;99.90;;;;;;5114125;28;20020;-47
2024/01/20 03:12:23;;;;;;;18.63;11.88;;;1.80;99.90;;;;;;5114218;28;20466;-48
2024/01/20 03:14:48;;;;;;;15.23;11.18;;;1.90;99.90;;;;;;5077897;28;20035;-47
2024/01/20 03:17:14;;;;;;;17.73;10.50;;;2.00;99.90;;;;;;5114093;28;20471;-47
2024/01/20 03:19:40;;;;;;;16.60;11.23;;;2.00;99.90;;;;;;5114247;28;20023;-49
2024/01/20 03:22:05;;;;;;;16.23;10.90;;;2.10;99.90;;;;;;5114173;28;20217;-49
2024/01/20 03:24:31;;;;;;;19.42;11.15;;;2.00;99.90;;;;;;5114170;28;20047;-50
2024/01/20 03:26:57;;;;;;;15.50;10.25;;;2.10;99.90;;;;;;5114180;28;20463;-48
2024/01/20 03:29:23;;;;;;;15.43;9.93;;;2.10;99.90;;;;;;5061006;28;20036;-47
2024/01/20 03:31:49;;;;;;;17.52;10.55;;;2.20;99.90;;;;;;5077908;28;20044;-50
2024/01/20 03:34:15;;;;;;;15.68;10.82;;;2.00;99.90;;;;;;5044300;28;20038;-47
2024/01/20 03:36:41;;;;;;;16.90;9.65;;;2.10;99.90;;;;;;5113359;28;20399;-50
2024/01/20 03:39:06;;;;;;;13.02;7.15;;;2.10;99.90;;;;;;5113946;28;20046;-48
2024/01/20 03:41:32;;;;;;;18.20;10.90;;;2.10;99.90;;;;;;5113573;28;20520;-50
2024/01/20 03:43:58;;;;;;;15.90;11.27;;;2.10;99.90;;;;;;5113560;28;20378;-48
2024/01/20 03:46:23;;;;;;;16.80;10.80;;;2.20;99.90;;;;;;5113781;28;20145;-50
2024/01/20 03:48:50;;;;;;;16.10;11.48;;;;;;;;;;5113788;28;20023;-48
2024/01/20 03:51:16;;;;;;;16.00;10.88;;;;;;;;;;5113590;28;20360;-48
2024/01/20 03:53:42;;;;;;;15.10;11.13;;;;;;;;;;5113237;28;20102;-51
2024/01/20 03:56:08;;;;;;;14.95;10.95;;;2.30;99.90;;;;;;5113328;28;20023;-50
2024/01/20 03:58:33;;;;;;;19.85;10.73;;;2.30;99.90;;;;;;5060505;28;20042;-48
2024/01/20 04:00:59;;;;;;;15.57;10.35;;;2.30;99.90;;;;;;5113310;28;20027;-49
2024/01/20 04:03:25;;;;;;;17.20;11.48;;;2.30;99.90;;;;;;5113133;28;20031;-50
2024/01/20 04:05:50;;;;;;;18.35;11.32;;;2.30;99.90;;;;;;5112847;28;20109;-50
2024/01/20 04:08:16;;;;;;;12.55;8.52;;;2.20;99.90;;;;;;5113532;28;20020;-48
2024/01/20 04:10:42;;;;;;;15.60;10.95;;;2.10;99.90;;;;;;5077069;28;20111;-47
2024/01/20 04:13:08;;;;;;;15.82;10.93;;;2.10;99.90;;;;;;5076806;28;20032;-49
2024/01/20 04:15:33;;;;;;;16.25;11.40;;;2.10;99.90;;;;;;5076634;28;20040;-49
2024/01/20 04:17:59;;;;;;;16.90;10.77;;;2.10;99.90;;;;;;5113034;28;20103;-49
2024/01/20 04:20:25;;;;;;;14.70;9.65;;;2.10;99.90;;;;;;5112728;28;20031;-48
2024/01/20 04:22:50;;;;;;;14.90;10.13;;;2.10;99.90;;;;;;5112634;28;20548;-48
2024/01/20 04:25:16;;;;;;;15.32;10.43;;;2.10;99.90;;;;;;5076692;28;20455;-48
2024/01/20 04:27:42;;;;;;;15.88;10.00;;;2.10;99.90;;;;;;5076368;28;20067;-49
2024/01/20 04:30:09;;;;;;;16.70;9.95;;;2.00;99.90;;;;;;5112710;28;20106;-47
2024/01/20 04:32:36;;;;;;;16.40;11.02;;;2.00;99.90;;;;;;5059844;28;20101;-50
2024/01/20 04:35:05;;;;;;;14.30;10.23;;;2.00;99.90;;;;;;5112563;28;20079;-47
2024/01/20 04:37:31;;;;;;;15.18;10.18;;;2.00;99.90;;;;;;5112880;28;20045;-50
2024/01/20 04:39:56;;;;;;;16.05;10.77;;;2.00;99.90;;;;;;5112172;28;20471;-50
2024/01/20 04:42:22;;;;;;;16.88;10.93;;;1.90;99.90;;;;;;5112459;28;20386;-49
2024/01/20 04:44:48;;;;;;;15.38;10.18;;;2.00;99.90;;;;;;5094106;28;20027;-48
2024/01/20 04:47:14;;;;;;;14.57;10.48;;;1.90;99.90;;;;;;5112777;28;20524;-49
2024/01/20 04:49:39;;;;;;;14.90;9.98;;;2.00;99.90;;;;;;5092160;28;20027;-50
2024/01/20 04:52:05;;;;;;;16.88;11.13;;;2.00;99.90;;;;;;5092144;28;20032;-50
2024/01/20 04:54:31;;;;;;;15.15;9.48;;;1.90;99.90;;;;;;5072806;28;20059;-48
2024/01/20 04:56:57;;;;;;;12.48;8.63;;;1.20;99.90;;;;;;5092241;28;20028;-48
2024/01/20 04:59:24;;;;;;;18.00;10.43;;;1.80;99.90;;;;;;5091937;28;20053;-50
2024/01/20 05:01:50;;;;;;;14.05;8.68;;;1.80;99.90;;;;;;5091742;28;20020;-48
2024/01/20 05:04:16;;;;;;;17.83;10.32;;;1.60;99.90;;;;;;5092123;28;20136;-48
2024/01/20 05:06:45;;;;;;;18.05;10.05;;;1.70;99.90;;;;;;5091736;28;20111;-50
2024/01/20 05:09:12;;;;;;;15.35;9.80;;;1.80;99.90;;;;;;5091860;28;20111;-49
2024/01/20 05:11:38;;;;;;;17.23;10.80;;;1.70;99.90;;;;;;5091598;28;20032;-48
2024/01/20 05:14:04;;;;;;;13.02;9.10;;;1.80;99.90;;;;;;5092021;28;20032;-50
2024/01/20 05:16:29;;;;;;;15.35;10.80;;;1.80;99.90;;;;;;5092031;28;20460;-48
2024/01/20 05:18:55;;;;;;;13.48;10.10;;;1.70;99.90;;;;;;5093753;28;20028;-48
2024/01/20 05:21:22;;;;;;;16.98;10.57;;;1.70;99.90;;;;;;5096004;28;20056;-50
2024/01/20 05:23:48;;;;;;;26.75;17.25;;;1.60;99.90;;;;;;5096251;28;20036;-49
2024/01/20 05:26:14;;;;;;;24.30;15.23;;;1.80;99.90;;;;;;5072944;28;20439;-48
2024/01/20 05:28:41;;;;;;;17.90;14.27;;;1.80;99.90;;;;;;5022919;28;20040;-49
2024/01/20 05:31:07;;;;;;;21.52;17.25;;;1.90;99.90;;;;;;5072910;28;20129;-48
2024/01/20 05:33:33;;;;;;;20.48;15.63;;;1.90;99.90;;;;;;5073096;28;20020;-50
2024/01/20 05:35:59;;;;;;;17.48;12.27;;;2.00;99.90;;;;;;5072733;28;20048;-48
2024/01/20 05:38:24;;;;;;;17.67;12.55;;;2.10;99.90;;;;;;5039343;28;20040;-51
2024/01/20 05:40:50;;;;;;;16.58;11.90;;;2.00;99.90;;;;;;5039212;28;20039;-49
2024/01/20 05:43:16;;;;;;;17.42;11.98;;;2.00;99.90;;;;;;5072512;28;20032;-49
2024/01/20 05:45:42;;;;;;;19.55;13.63;;;2.00;99.90;;;;;;5072717;28;20124;-48
2024/01/20 05:48:08;;;;;;;19.98;12.85;;;2.10;99.90;;;;;;5072800;28;20111;-50
2024/01/20 05:50:33;;;;;;;18.95;13.82;;;2.00;99.90;;;;;;5072593;28;20029;-50
2024/01/20 05:52:59;;;;;;;19.30;13.57;;;2.00;99.90;;;;;;5072459;28;20060;-50
2024/01/20 05:55:25;;;;;;;14.43;10.75;;;2.00;99.90;;;;;;5055830;28;20036;-50
2024/01/20 05:57:51;;;;;;;15.43;11.35;;;2.00;99.90;;;;;;5089468;28;20114;-48
2024/01/20 06:00:19;;;;;;;12.05;8.45;;;2.00;99.90;;;;;;5095200;28;20495;-48
2024/01/20 06:02:44;;;;;;;13.43;9.85;;;1.80;99.90;;;;;;5076714;28;20564;-50
2024/01/20 06:05:10;;;;;;;13.13;8.82;;;1.80;99.90;;;;;;5095188;28;20047;-49
2024/01/20 06:07:36;;;;;;;16.13;10.95;;;1.80;99.90;;;;;;5059167;28;20494;-48
2024/01/20 06:10:01;;;;;;;15.07;10.20;;;1.70;99.90;;;;;;5094883;28;20053;-47
2024/01/20 06:12:27;;;;;;;14.75;10.80;;;1.80;99.90;;;;;;5095160;28;20023;-49
2024/01/20 06:14:53;;;;;;;14.30;9.15;;;1.90;99.90;;;;;;5102187;28;20487;-48
2024/01/20 06:17:18;;;;;;;14.20;9.52;;;1.90;99.90;;;;;;5101382;28;20430;-48
2024/01/20 06:19:44;;;;;;;14.02;9.30;;;1.90;99.90;;;;;;5067475;28;20074;-49
2024/01/20 06:22:10;;;;;;;14.32;8.88;;;1.90;99.90;;;;;;5097219;28;20077;-48
2024/01/20 06:24:36;;;;;;;13.43;9.40;;;1.90;99.90;;;;;;5095028;28;20024;-49
2024/01/20 06:27:02;;;;;;;17.10;8.77;;;1.90;99.90;;;;;;5094552;28;20032;-50
2024/01/20 06:29:27;;;;;;;14.45;9.43;;;1.90;99.90;;;;;;5094752;28;20055;-50
2024/01/20 06:31:53;;;;;;;13.95;9.02;;;1.90;99.90;;;;;;5095526;28;20107;-50
2024/01/20 06:34:19;;;;;;;14.05;9.23;;;2.00;99.90;;;;;;5094319;28;20035;-48
2024/01/20 06:36:44;;;;;;;16.58;8.60;;;2.10;99.90;;;;;;5094312;28;20020;-49
2024/01/20 06:39:10;;;;;;;12.20;9.55;;;2.10;99.90;;;;;;5104770;28;20391;-49
2024/01/20 06:41:36;;;;;;;43.78;22.35;;;2.00;99.90;;;;;;5114662;28;20028;-48
2024/01/20 06:44:01;;;;;;;23.58;15.77;;;2.00;99.90;;;;;;5114614;28;20036;-50
2024/01/20 06:46:27;;;;;;;13.15;8.50;;;2.00;99.90;;;;;;5105826;28;20375;-48
2024/01/20 06:48:53;;;;;;;15.27;9.77;;;2.00;99.90;;;;;;5094321;28;20032;-48
2024/01/20 06:51:22;;;;;;;15.15;10.20;;;2.10;99.90;;;;;;5075958;28;20126;-47
2024/01/20 06:53:52;;;;;;;14.73;9.13;;;1.90;99.90;;;;;;5114746;28;20062;-48
2024/01/20 06:56:18;;;;;;;12.68;9.63;;;2.10;99.90;;;;;;5114799;28;20355;-49
2024/01/20 06:58:43;;;;;;;12.60;8.60;;;2.00;99.90;;;;;;5078267;28;20084;-49
2024/01/20 07:01:10;;;;;;;13.93;9.30;;;2.00;99.90;;;;;;5072767;28;20036;-49
2024/01/20 07:03:36;;;;;;;14.45;9.13;;;2.00;99.90;;;;;;5099952;28;20097;-51
2024/01/20 07:06:02;;;;;;;13.25;9.50;;;1.90;99.90;;;;;;5096857;28;20476;-48
2024/01/20 07:08:29;;;;;;;12.40;8.95;;;2.00;99.90;;;;;;5067309;28;20086;-50
2024/01/20 07:10:54;;;;;;;13.80;9.15;;;1.80;99.90;;;;;;5101348;28;20468;-46
2024/01/20 07:13:20;;;;;;;14.27;9.45;;;1.90;99.90;;;;;;5104240;28;20020;-49
2024/01/20 07:15:46;;;;;;;16.45;9.90;;;1.90;99.90;;;;;;5113376;28;20534;-48
2024/01/20 07:18:11;;;;;;;12.77;8.75;;;1.90;99.90;;;;;;5111126;28;20118;-50
2024/01/20 07:20:37;;;;;;;14.45;10.27;;;1.90;99.90;;;;;;5112719;28;20027;-49
2024/01/20 07:23:03;;;;;;;15.27;9.38;;;1.80;99.90;;;;;;5112783;28;20039;-52
2024/01/20 07:25:28;;;;;;;12.13;7.90;;;1.80;99.90;;;;;;5076454;28;20085;-49
2024/01/20 07:27:54;;;;;;;16.95;10.60;;;;;;;;;;5112970;28;20039;-51
2024/01/20 07:30:20;;;;;;;15.32;11.18;;;1.60;99.90;;;;;;5112448;28;20108;-48
2024/01/20 07:32:46;;;;;;;17.73;10.95;;;1.70;99.90;;;;;;5059149;28;20513;-50
2024/01/20 07:35:12;;;;;;;16.15;11.15;;;;;;;;;;5050016;28;20054;-47
2024/01/20 07:37:38;;;;;;;17.70;11.25;;;;;;;;;;5073065;28;20423;-48
2024/01/20 07:40:05;;;;;;;16.02;10.38;;;;;;;;;;5092443;28;20388;-49
2024/01/20 07:42:35;;;;;;;16.65;11.43;;;;;;;;;;5091648;28;20039;-51
2024/01/20 07:45:02;;;;;;;15.55;10.98;;;1.90;99.90;;;;;;5092026;28;20364;-47
2024/01/20 07:47:28;;;;;;;17.15;11.50;;;1.70;99.90;;;;;;5092084;28;20090;-49
2024/01/20 07:49:53;;;;;;;18.40;10.90;;;1.80;99.90;;;;;;5091893;28;20024;-49
2024/01/20 07:52:19;;;;;;;19.63;13.90;;;1.80;99.90;;;;;;5092176;28;20028;-49
2024/01/20 07:54:45;;;;;;;15.15;11.45;;;1.90;99.90;;;;;;5072722;28;20032;-50
2024/01/20 07:57:11;;;;;;;15.63;11.57;;;2.20;99.90;;;;;;5091905;28;20035;-50
2024/01/20 07:59:36;;;;;;;23.80;14.70;;;2.30;99.90;;;;;;5091796;28;20081;-50
2024/01/20 08:02:02;;;;;;;28.17;23.65;;;2.40;99.90;;;;;;5092131;28;20031;-50
2024/01/20 08:04:28;;;;;;;40.33;35.92;;;;;;;;;;5055913;28;20135;-50
2024/01/20 08:06:54;;;;;;;19.58;15.35;;;4.20;99.90;;;;;;5072457;28;20093;-48
2024/01/20 08:09:20;;;;;;;22.85;17.63;;;4.80;99.90;;;;;;5091864;28;20464;-50
2024/01/20 08:11:46;;;;;;;21.48;15.48;;;;;;;;;;5072413;28;20058;-48
2024/01/20 08:14:11;;;;;;;20.63;16.40;;;5.70;99.90;;;;;;5091534;28;20032;-51
2024/01/20 08:16:38;;;;;;;22.17;17.63;;;;;;;;;;5091795;28;20081;-50
2024/01/20 08:19:04;;;;;;;19.50;16.08;;;9.70;97.30;;;;;;5091849;28;20031;-48
2024/01/20 08:21:30;;;;;;;21.38;16.27;;;;;;;;;;5072530;28;20040;-50
2024/01/20 08:23:56;;;;;;;22.98;17.05;;;;;;;;;;5091406;28;20040;-50
2024/01/20 08:26:21;;;;;;;21.77;14.90;;;13.50;90.30;;;;;;5091607;28;20027;-51
2024/01/20 08:28:48;;;;;;;26.05;18.08;;;;;;;;;;5091438;28;20084;-50
2024/01/20 08:31:14;;;;;;;23.95;15.63;;;;;;;;;;5072186;28;20032;-51
2024/01/20 08:33:42;;;;;;;24.80;18.70;;;;;;;;;;5091305;28;20034;-48
2024/01/20 08:36:08;;;;;;;22.25;16.65;;;;;;;;;;5090526;28;20048;-49
2024/01/20 08:38:33;;;;;;;21.40;16.30;;;15.90;99.90;;;;;;5091399;28;20035;-50
2024/01/20 08:40:59;;;;;;;24.25;17.95;;;;;;;;;;5091223;28;20395;-50
2024/01/20 08:43:25;;;;;;;20.63;15.43;;;;;;;;;;5090836;28;20671;-51
2024/01/20 08:45:51;;;;;;;19.65;15.88;;;;;;;;;;5091138;28;20036;-49
2024/01/20 08:48:17;;;;;;;19.60;14.70;;;;;;;;;;5091185;28;20028;-50
2024/01/20 08:50:43;;;;;;;16.42;14.27;;;;;;;;;;5091298;28;20051;-49
2024/01/20 08:53:09;;;;;;;19.90;15.05;;;;;;;;;;5070942;28;20064;-49
2024/01/20 08:55:35;;;;;;;19.17;15.05;;;18.20;75.20;;;;;;5091311;28;20036;-48
2024/01/20 08:58:01;;;;;;;31.75;21.30;;;18.10;75.80;;;;;;5091280;28;20515;-48
2024/01/20 09:00:28;;;;;;;35.95;19.85;;;19.30;75.80;;;;;;5090934;28;20032;-48
2024/01/20 09:02:54;;;;;;;22.60;17.13;;;;;;;;;;5091324;28;20432;-50
2024/01/20 09:05:20;;;;;;;23.95;19.05;;;16.30;76.30;;;;;;5091339;28;20077;-51
2024/01/20 09:07:46;;;;;;;22.63;16.50;;;17.10;75.90;;;;;;5091172;28;20028;-48
2024/01/20 09:10:12;;;;;;;37.45;26.55;;;17.30;75.40;;;;;;5067931;28;20067;-50
2024/01/20 09:12:37;;;;;;;22.25;18.95;;;18.20;74.70;;;;;;5051054;28;20040;-49
2024/01/20 09:15:03;;;;;;;27.08;19.20;;;18.70;74.30;;;;;;5068019;28;20498;-49
2024/01/20 09:17:29;;;;;;;17.65;13.93;;;18.00;72.90;;;;;;5051136;28;20131;-46
2024/01/20 09:19:55;;;;;;;18.98;13.18;;;17.50;72.80;;;;;;5067996;28;20127;-50
2024/01/20 09:22:20;;;;;;;14.57;13.07;;;17.40;95.10;;;;;;5051100;28;20549;-50
2024/01/20 09:24:46;;;;;;;18.50;16.52;;;17.80;73.40;;;;;;5067727;28;20058;-49
2024/01/20 09:27:12;;;;;;;15.60;13.88;;;18.10;73.40;;;;;;5068028;28;20455;-49
2024/01/20 09:29:38;;;;;;;16.02;13.85;;;18.20;72.60;;;;;;5050958;28;20036;-48
2024/01/20 09:32:04;;;;;;;17.00;15.07;;;17.50;72.90;;;;;;5067797;28;20417;-49
2024/01/20 09:34:29;;;;;;;20.08;15.00;;;16.30;73.80;;;;;;5067598;28;20387;-47
2024/01/20 09:36:55;;;;;;;12.68;10.65;;;17.00;74.00;;;;;;5067762;28;20139;-48
2024/01/20 09:39:21;;;;;;;15.65;12.80;;;17.40;73.30;;;;;;5067845;28;20028;-48
2024/01/20 09:41:47;;;;;;;14.95;11.15;;;17.30;73.80;;;;;;5084576;28;20040;-47
2024/01/20 09:44:15;;;;;;;13.48;10.88;;;16.50;73.30;;;;;;5090359;28;20062;-49
2024/01/20 09:46:41;;;;;;;28.98;16.75;;;16.50;73.10;;;;;;5090380;28;20059;-50
2024/01/20 09:49:06;;;;;;;41.20;19.42;;;15.10;74.40;;;;;;5090342;28;20067;-50
2024/01/20 09:51:32;;;;;;;23.25;12.50;;;14.80;88.10;;;;;;5090722;28;20028;-47
2024/01/20 09:53:59;;;;;;;42.53;20.33;;;14.80;78.00;;;;;;5090514;28;20461;-48
2024/01/20 09:56:26;;;;;;;27.10;16.15;;;14.50;75.40;;;;;;5090480;28;20036;-49
2024/01/20 09:58:55;;;;;;;84.55;30.23;;;15.70;75.80;;;;;;5096610;28;20049;-50
2024/01/20 10:01:22;;;;;;;96.65;32.15;;;16.20;74.90;;;;;;5109984;28;20020;-48
2024/01/20 10:03:48;;;;;;;27.95;16.42;;;17.30;74.50;;;;;;5110075;28;20499;-50
2024/01/20 10:06:13;;;;;;;209.10;61.42;;;17.50;73.90;;;;;;5114441;28;20027;-51
2024/01/20 10:08:39;;;;;;;35.20;17.98;;;16.10;73.70;;;;;;5114165;28;20023;-49
2024/01/20 10:11:05;;;;;;;54.15;21.73;;;14.50;75.20;;;;;;5075258;28;20058;-49
2024/01/20 10:13:31;;;;;;;44.50;20.60;;;15.20;90.90;;;;;;5103625;28;20027;-49
2024/01/20 10:15:57;;;;;;;58.03;22.52;;;15.30;86.30;;;;;;5096778;28;20464;-50
2024/01/20 10:18:23;;;;;;;29.05;14.73;;;15.40;76.00;;;;;;5104383;28;20140;-51
2024/01/20 10:20:49;;;;;;;92.80;30.00;;;;;;;;;;5104502;28;20356;-49
2024/01/20 10:23:14;;;;;;;176.73;51.08;;;16.60;74.20;;;;;;5083594;28;20048;-50
2024/01/20 10:25:40;;;;;;;60.92;22.83;;;16.10;74.00;;;;;;5066278;28;20034;-52
2024/01/20 10:28:09;;;;;;;13.82;11.18;;;15.70;90.30;;;;;;5096619;28;20052;-51
2024/01/20 10:30:38;;;;;;;22.92;15.60;;;15.70;75.20;;;;;;5093461;28;20157;-48
2024/01/20 10:33:04;;;;;;;34.53;18.67;;;16.00;75.30;;;;;;5093476;28;20043;-51
2024/01/20 10:35:29;;;;;;;24.55;13.95;;;16.20;75.20;;;;;;5093337;28;20495;-51
2024/01/20 10:38:00;;;;;;;21.23;13.70;;;16.20;75.20;;;;;;5093722;28;20028;-49
2024/01/20 10:40:26;;;;;;;17.45;12.57;;;15.60;75.00;;;;;;5093732;28;20039;-52
2024/01/20 10:42:58;;;;;;;13.40;11.50;;;15.30;90.40;;;;;;5090903;28;20396;-50
2024/01/20 10:45:25;;;;;;;16.77;11.20;;;15.90;84.70;;;;;;5109051;28;20128;-49
2024/01/20 10:48:15;;;;;;;14.48;10.50;;;15.80;83.80;;;;;;5060520;28;20051;-51
2024/01/20 10:50:46;;;;;;;13.32;9.30;;;16.10;75.70;;;;;;5113507;28;20042;-50
2024/01/20 10:53:12;;;;;;;20.63;17.13;;;15.40;74.70;;;;;;5113479;28;20032;-50
2024/01/20 10:55:40;;;;;;;16.83;13.32;;;15.80;75.80;;;;;;5113574;28;20445;-51
2024/01/20 10:58:08;;;;;;;17.90;15.95;;;;;;;;;;5113363;28;20027;-49
2024/01/20 11:00:36;;;;;;;21.30;12.93;;;17.00;75.00;;;;;;5076788;28;20035;-51
2024/01/20 11:03:05;;;;;;;13.45;9.57;;;16.60;74.70;;;;;;5113065;28;20035;-50
2024/01/20 11:05:32;;;;;;;13.52;11.57;;;15.00;75.40;;;;;;5113263;28;20463;-50
2024/01/20 11:08:06;;;;;;;14.88;10.70;;;15.70;76.20;;;;;;5113396;28;20032;-50
2024/01/20 11:10:43;;;;;;;13.40;10.35;;;;;;;;;;5076916;28;20513;-49
2024/01/20 11:13:11;;;;;;;16.80;11.20;;;16.50;74.70;;;;;;5113023;28;20495;-49
2024/01/20 11:15:38;;;;;;;10.25;9.02;;;;;;;;;;5112557;28;20031;-50
2024/01/20 11:18:19;;;;;;;12.75;9.82;;;16.10;86.80;;;;;;5112717;28;20034;-51
2024/01/20 11:20:59;;;;;;;12.63;8.95;;;15.80;75.10;;;;;;5113167;28;20027;-51
2024/01/20 11:23:26;;;;;;;12.25;10.75;;;16.40;74.60;;;;;;5076622;28;20032;-51
2024/01/20 11:25:53;;;;;;;10.55;8.80;;;16.30;74.20;;;;;;5112836;28;20028;-51
2024/01/20 11:28:30;;;;;;;11.55;9.48;;;16.00;74.10;;;;;;5112747;28;20094;-51
2024/01/20 11:30:56;;;;;;;12.48;9.07;;;15.70;73.70;;;;;;5112850;28;20467;-48
2024/01/20 11:33:22;;;;;;;13.70;10.27;;;;;;;;;;5049376;28;20051;-51
2024/01/20 11:35:48;;;;;;;11.30;9.00;;;;;;;;;;5032874;28;20049;-50
2024/01/20 11:38:15;;;;;;;10.90;9.18;;;15.30;74.40;;;;;;5049482;28;20037;-50
2024/01/20 11:40:41;;;;;;;11.77;9.02;;;16.90;75.20;;;;;;5049346;28;20555;-49
2024/01/20 11:43:07;;;;;;;10.50;9.40;;;16.10;73.70;;;;;;5048961;28;20057;-50
2024/01/20 11:45:32;;;;;;;12.48;9.50;;;15.90;73.30;;;;;;5015898;28;20492;-49
2024/01/20 11:47:59;;;;;;;12.00;8.50;;;;;;;;;;5040915;28;20164;-49
2024/01/20 11:50:24;;;;;;;10.50;9.40;;;15.80;89.70;;;;;;5029352;28;20119;-51
2024/01/20 11:52:50;;;;;;;10.50;9.15;;;;;;;;;;5029146;28;20121;-49
2024/01/20 11:55:16;;;;;;;12.05;9.52;;;16.20;99.30;;;;;;5029292;28;20148;-49
2024/01/20 11:57:42;;;;;;;20.67;12.88;;;16.10;74.30;;;;;;5029227;28;20680;-51
2024/01/20 12:00:10;;;;;;;30.23;25.48;;;15.90;73.80;;;;;;5019472;28;20052;-49
2024/01/20 12:02:36;;;;;;;21.25;18.95;;;16.30;91.00;;;;;;4993019;28;20046;-48
2024/01/20 12:05:01;;;;;;;17.77;14.20;;;16.00;73.90;;;;;;5031421;28;20094;-50
2024/01/20 12:07:27;;;;;;;14.68;12.68;;;16.30;74.00;;;;;;5071878;28;20040;-51
2024/01/20 12:09:53;;;;;;;19.00;13.27;;;15.90;74.30;;;;;;5071250;28;20040;-51
2024/01/20 12:12:19;;;;;;;12.65;10.35;;;15.70;74.70;;;;;;5071210;28;20071;-50
2024/01/20 12:14:45;;;;;;;13.63;11.35;;;14.90;75.40;;;;;;5071065;28;20114;-51
2024/01/20 12:17:12;;;;;;;16.50;11.63;;;15.10;76.30;;;;;;5071642;28;20456;-48
2024/01/20 12:19:38;;;;;;;13.20;11.35;;;;;;;;;;5071023;28;20469;-51
2024/01/20 12:22:06;;;;;;;14.38;11.80;;;;;;;;;;5071377;28;20132;-48
2024/01/20 12:24:33;;;;;;;13.25;9.95;;;;;;;;;;5070945;28;20430;-51
2024/01/20 12:27:00;;;;;;;12.50;10.45;;;;;;;;;;5071135;28;20024;-50
2024/01/20 12:29:26;;;;;;;12.65;9.32;;;13.00;78.40;;;;;;5035524;28;20052;-49
2024/01/20 12:31:51;;;;;;;10.93;9.18;;;13.20;95.20;;;;;;5070909;28;20024;-51
2024/01/20 12:34:18;;;;;;;10.98;9.10;;;13.40;78.60;;;;;;5071238;28;20074;-49
2024/01/20 12:36:44;;;;;;;11.52;9.15;;;13.70;78.20;;;;;;5070536;28;20110;-49
2024/01/20 12:39:09;;;;;;;12.68;10.48;;;13.80;78.00;;;;;;5070344;28;20024;-51